Terminal Aerodrome Forecast
Issued by NWS

Home | Current Version | Previous Version | Text Only | Print | Product List | Glossary On
Versions: 1 2 3 4 5 6 7 8 9 10 11 12 13
000
FTUS42 KGSP 260535
TAFHKY
TAF
KHKY 260535Z 2606/2706 20004KT P6SM BKN070
     FM261600 22006KT P6SM SCT060 BKN250
     FM261900 22006KT P6SM BKN060 PROB30 2621/2624 4SM -TSRA
      OVC025CB
     FM270000 22003KT P6SM BKN050 PROB30 2700/2702 4SM -TSRA
      OVC025CB=

USA.gov is the U.S. government's official web portal to all federal, state and local government web resources and services.